Time;durP1;ratioP1;P1;durP2;ratioP2;P2;SDS_P1;SDS_P2;PMS_P1;PMS_P2;Temp;Humidity;BMP_temperature;BMP_pressure;BME280_temperature;BME280_humidity;BME280_pressure;Samples;Min_cycle;Max_cycle;Signal;HPM_P1;HPM_P2
2022/04/11 00:01:31;;;;;;;;;;;5.60;57.00;;;;;;4998532;28;19913;-87
2022/04/11 00:03:57;;;;;;;;;;;5.50;56.90;;;;;;5002064;28;19953;-88
2022/04/11 00:06:22;;;;;;;;;;;5.50;56.90;;;;;;4997846;28;19929;-87
2022/04/11 00:08:48;;;;;;;;;;;5.50;56.80;;;;;;4993701;28;19991;-88
2022/04/11 00:11:13;;;;;;;;;;;5.50;56.70;;;;;;5016632;28;19924;-88
2022/04/11 00:13:39;;;;;;;;;;;5.40;56.60;;;;;;4986347;28;19956;-87
2022/04/11 00:16:07;;;;;;;;;;;5.40;56.50;;;;;;4991072;28;19918;-88
2022/04/11 00:18:35;;;;;;;;;;;5.40;56.50;;;;;;4997580;28;19923;-89
2022/04/11 00:21:01;;;;;;;;;;;5.30;56.50;;;;;;5016326;28;19948;-87
2022/04/11 00:23:27;;;;;;;;;;;5.30;56.60;;;;;;4996594;28;19913;-88
2022/04/11 00:25:52;;;;;;;;;;;5.30;56.60;;;;;;4991445;28;19928;-87
2022/04/11 00:28:18;;;;;;;;;;;5.30;56.60;;;;;;4998185;28;19980;-87
2022/04/11 00:30:43;;;;;;;;;;;5.30;56.60;;;;;;4996413;28;20313;-87
2022/04/11 00:33:08;;;;;;;;;;;5.30;56.90;;;;;;5014248;28;19913;-87
2022/04/11 00:35:34;;;;;;;;;;;5.30;57.20;;;;;;5015267;28;19913;-88
2022/04/11 00:37:59;;;;;;;;;;;5.30;57.20;;;;;;4997900;28;20255;-88
2022/04/11 00:40:25;;;;;;;;;;;5.30;57.20;;;;;;4995074;28;19998;-88
2022/04/11 00:42:50;;;;;;;;;;;5.30;57.10;;;;;;5009933;28;19918;-88
2022/04/11 00:45:16;;;;;;;;;;;5.30;57.10;;;;;;4994867;28;19914;-87
2022/04/11 00:47:42;;;;;;;;;;;5.30;57.20;;;;;;4992315;28;19917;-88
2022/04/11 00:50:09;;;;;;;;;;;5.30;57.40;;;;;;4997222;28;19918;-87
2022/04/11 00:52:38;;;;;;;;;;;5.30;57.60;;;;;;4990901;28;19913;-87
2022/04/11 00:55:05;;;;;;;;;;;5.30;57.70;;;;;;4987363;28;19949;-87
2022/04/11 00:57:30;;;;;;;;;;;5.30;57.60;;;;;;4979161;28;19929;-88
2022/04/11 00:59:56;;;;;;;;;;;5.30;57.40;;;;;;4990507;28;19917;-87
2022/04/11 01:02:22;;;;;;;;;;;5.30;57.40;;;;;;5005670;28;19964;-88
2022/04/11 01:04:47;;;;;;;;;;;5.20;57.20;;;;;;4996136;28;19917;-88
2022/04/11 01:07:13;;;;;;;;;;;5.30;57.10;;;;;;5006752;28;19921;-87
2022/04/11 01:09:39;;;;;;;;;;;5.30;57.10;;;;;;5015674;28;19913;-87
2022/04/11 01:12:05;;;;;;;;;;;5.20;57.20;;;;;;4990282;28;20590;-89
2022/04/11 01:14:31;;;;;;;;;;;5.20;57.30;;;;;;4991288;28;19923;-87
2022/04/11 01:16:59;;;;;;;;;;;5.20;57.30;;;;;;4986571;28;19914;-88
2022/04/11 01:19:25;;;;;;;;;;;5.20;57.30;;;;;;4998637;28;19961;-88
2022/04/11 01:21:51;;;;;;;;;;;5.20;57.30;;;;;;4997123;28;19918;-88
2022/04/11 01:24:18;;;;;;;;;;;5.20;57.40;;;;;;5007615;28;19921;-88
2022/04/11 01:26:45;;;;;;;;;;;5.10;57.50;;;;;;4996905;28;19918;-88
2022/04/11 01:29:11;;;;;;;;;;;5.10;57.50;;;;;;5007700;28;19961;-88
2022/04/11 01:31:36;;;;;;;;;;;5.10;57.30;;;;;;4991711;28;20014;-88
2022/04/11 01:34:02;;;;;;;;;;;5.10;57.40;;;;;;5015218;28;19918;-86
2022/04/11 01:36:27;;;;;;;;;;;5.10;57.30;;;;;;4996366;28;19913;-88
2022/04/11 01:38:53;;;;;;;;;;;5.10;57.20;;;;;;5007262;28;19918;-88
2022/04/11 01:41:20;;;;;;;;;;;5.00;57.10;;;;;;4982771;28;20374;-88
2022/04/11 01:43:47;;;;;;;;;;;5.10;57.00;;;;;;4988418;28;20007;-87
2022/04/11 01:46:12;;;;;;;;;;;5.00;57.00;;;;;;5013450;28;20376;-87
2022/04/11 01:48:38;;;;;;;;;;;5.00;57.00;;;;;;5006111;28;20008;-88
2022/04/11 01:51:04;;;;;;;;;;;5.00;56.90;;;;;;4995065;28;20012;-87
2022/04/11 01:53:29;;;;;;;;;;;5.00;56.80;;;;;;5013082;28;19913;-86
2022/04/11 01:55:55;;;;;;;;;;;5.00;57.30;;;;;;4996022;28;19914;-86
2022/04/11 01:58:20;;;;;;;;;;;5.10;58.60;;;;;;4992109;28;19929;-86
2022/04/11 02:00:47;;;;;;;;;;;5.20;59.00;;;;;;5006636;28;19913;-87
2022/04/11 02:03:13;;;;;;;;;;;5.20;58.90;;;;;;4995585;28;19918;-87
2022/04/11 02:05:38;;;;;;;;;;;5.20;58.70;;;;;;4995535;28;19921;-87
2022/04/11 02:08:07;;;;;;;;;;;5.10;58.40;;;;;;5013780;28;19917;-87
2022/04/11 02:10:33;;;;;;;;;;;5.20;58.10;;;;;;5015749;28;19932;-87
2022/04/11 02:12:59;;;;;;;;;;;5.10;57.80;;;;;;5014863;28;19909;-86
2022/04/11 02:15:24;;;;;;;;;;;5.10;57.60;;;;;;4977672;28;20313;-86
2022/04/11 02:17:53;;;;;;;;;;;5.10;57.60;;;;;;4993471;28;19909;-87
2022/04/11 02:20:18;;;;;;;;;;;5.10;57.50;;;;;;4993160;28;19922;-87
2022/04/11 02:22:47;;;;;;;;;;;5.00;57.40;;;;;;5008019;28;19913;-87
2022/04/11 02:25:13;;;;;;;;;;;5.00;57.40;;;;;;5012151;28;20011;-89
2022/04/11 02:27:39;;;;;;;;;;;5.00;57.60;;;;;;4991896;28;20358;-87
2022/04/11 02:30:05;;;;;;;;;;;5.00;57.70;;;;;;5002862;28;19933;-86
2022/04/11 02:32:31;;;;;;;;;;;5.00;57.60;;;;;;5011535;28;19921;-86
2022/04/11 02:34:56;;;;;;;;;;;5.00;57.50;;;;;;5014057;28;19913;-88
2022/04/11 02:37:22;;;;;;;;;;;5.00;57.40;;;;;;5014967;28;20241;-87
2022/04/11 02:39:47;;;;;;;;;;;4.90;57.30;;;;;;5014377;28;20424;-87
2022/04/11 02:42:25;;;;;;;;;;;4.90;57.30;;;;;;5011799;28;19914;-87
2022/04/11 02:44:51;;;;;;;;;;;4.90;57.30;;;;;;4990619;28;19920;-88
2022/04/11 02:47:17;;;;;;;;;;;4.80;57.30;;;;;;4994861;28;20028;-87
2022/04/11 02:49:42;;;;;;;;;;;4.90;57.10;;;;;;4990154;28;19921;-87
2022/04/11 02:52:08;;;;;;;;;;;4.80;56.90;;;;;;5011084;28;20016;-87
2022/04/11 02:54:33;;;;;;;;;;;4.80;56.90;;;;;;4990044;28;19922;-87
2022/04/11 02:56:59;;;;;;;;;;;4.80;56.80;;;;;;5012248;28;19914;-89
2022/04/11 02:59:24;;;;;;;;;;;4.80;56.90;;;;;;5012684;28;20262;-86
2022/04/11 03:01:50;;;;;;;;;;;4.80;56.90;;;;;;5010848;28;19924;-88
2022/04/11 03:04:16;;;;;;;;;;;4.80;57.20;;;;;;4986906;28;19921;-87
2022/04/11 03:06:44;;;;;;;;;;;4.80;57.40;;;;;;5015994;28;20408;-87
2022/04/11 03:09:09;;;;;;;;;;;4.80;57.40;;;;;;4990789;28;19940;-87
2022/04/11 03:11:35;;;;;;;;;;;4.80;57.30;;;;;;5008322;28;20004;-87
2022/04/11 03:14:01;;;;;;;;;;;4.80;57.20;;;;;;5014314;28;19917;-85
2022/04/11 03:16:26;;;;;;;;;;;4.80;57.00;;;;;;5014098;28;19918;-86
2022/04/11 03:18:52;;;;;;;;;;;4.80;57.00;;;;;;5010682;28;19921;-86
2022/04/11 03:21:17;;;;;;;;;;;4.80;56.90;;;;;;5013479;28;19924;-86
2022/04/11 03:23:43;;;;;;;;;;;4.80;56.90;;;;;;4990491;28;20373;-87
2022/04/11 03:26:08;;;;;;;;;;;4.80;56.90;;;;;;5015024;28;19925;-86
2022/04/11 03:28:34;;;;;;;;;;;4.80;56.90;;;;;;5013894;28;19917;-86
2022/04/11 03:30:59;;;;;;;;;;;4.70;56.90;;;;;;4998495;28;19948;-87
2022/04/11 03:33:25;;;;;;;;;;;4.70;56.90;;;;;;5012183;28;19924;-86
2022/04/11 03:35:50;;;;;;;;;;;4.80;57.00;;;;;;4997249;28;19918;-86
2022/04/11 03:38:16;;;;;;;;;;;4.70;56.90;;;;;;4997991;28;20457;-86
2022/04/11 03:40:42;;;;;;;;;;;4.70;57.00;;;;;;4999094;28;20600;-86
2022/04/11 03:43:07;;;;;;;;;;;4.70;57.10;;;;;;4998940;28;19918;-86
2022/04/11 03:45:33;;;;;;;;;;;4.70;57.20;;;;;;4991216;28;20358;-88
2022/04/11 03:47:58;;;;;;;;;;;4.70;57.20;;;;;;5008806;28;19918;-85
2022/04/11 03:50:23;;;;;;;;;;;4.80;57.20;;;;;;4990522;28;19922;-88
2022/04/11 03:52:49;;;;;;;;;;;4.80;57.50;;;;;;5014806;28;20373;-88
2022/04/11 03:55:15;;;;;;;;;;;4.80;57.60;;;;;;5014345;28;19921;-87
2022/04/11 03:57:40;;;;;;;;;;;4.80;57.60;;;;;;4997898;28;19921;-88
2022/04/11 04:00:06;;;;;;;;;;;4.80;57.60;;;;;;4989639;28;19925;-88
2022/04/11 04:02:32;;;;;;;;;;;4.80;57.70;;;;;;4984811;28;20059;-89
2022/04/11 04:04:57;;;;;;;;;;;4.90;57.60;;;;;;5016060;28;19918;-87
2022/04/11 04:07:23;;;;;;;;;;;4.90;57.60;;;;;;4986400;28;19948;-89
2022/04/11 04:09:48;;;;;;;;;;;4.90;57.60;;;;;;4991418;28;19921;-89
2022/04/11 04:12:17;;;;;;;;;;;5.00;57.80;;;;;;4990974;28;19920;-88
2022/04/11 04:14:42;;;;;;;;;;;5.00;57.90;;;;;;5015267;28;19976;-87
2022/04/11 04:17:08;;;;;;;;;;;5.10;58.10;;;;;;4989058;28;19922;-88
2022/04/11 04:19:33;;;;;;;;;;;5.10;58.20;;;;;;4992799;28;19914;-88
2022/04/11 04:21:59;;;;;;;;;;;5.20;58.30;;;;;;5007428;28;19936;-87
2022/04/11 04:24:24;;;;;;;;;;;5.20;58.30;;;;;;4996262;28;19913;-87
2022/04/11 04:26:50;;;;;;;;;;;5.30;58.40;;;;;;4993159;28;19925;-88
2022/04/11 04:29:16;;;;;;;;;;;5.30;58.40;;;;;;4994790;28;19917;-88
2022/04/11 04:31:43;;;;;;;;;;;5.30;58.40;;;;;;5014707;28;19940;-89
2022/04/11 04:34:08;;;;;;;;;;;5.40;58.40;;;;;;4981153;28;19918;-87
2022/04/11 04:36:34;;;;;;;;;;;5.40;58.40;;;;;;4998063;28;19913;-87
2022/04/11 04:39:01;;;;;;;;;;;5.40;58.40;;;;;;4993365;28;19918;-87
2022/04/11 04:41:26;;;;;;;;;;;5.40;58.40;;;;;;5013295;28;19921;-87
2022/04/11 04:43:52;;;;;;;;;;;5.40;58.40;;;;;;5016158;28;19914;-87
2022/04/11 04:46:17;;;;;;;;;;;5.40;58.40;;;;;;4998533;28;19980;-87
2022/04/11 04:48:42;;;;;;;;;;;5.40;58.40;;;;;;4998545;28;19917;-89
2022/04/11 04:51:08;;;;;;;;;;;5.40;58.40;;;;;;5035240;28;19931;-86
2022/04/11 04:53:34;;;;;;;;;;;5.50;58.60;;;;;;5017943;28;19913;-87
2022/04/11 04:55:59;;;;;;;;;;;5.50;58.70;;;;;;5035610;28;20023;-87
2022/04/11 04:58:24;;;;;;;;;;;5.60;58.80;;;;;;5035527;28;19999;-86
2022/04/11 05:00:50;;;;;;;;;;;5.70;59.20;;;;;;5015126;28;19918;-86
2022/04/11 05:03:15;;;;;;;;;;;5.90;59.50;;;;;;5013476;28;19917;-87
2022/04/11 05:05:41;;;;;;;;;;;6.00;59.90;;;;;;5012652;28;20051;-86
2022/04/11 05:08:08;;;;;;;;;;;6.30;60.20;;;;;;4995457;28;19917;-89
2022/04/11 05:10:33;;;;;;;;;;;6.40;60.30;;;;;;4997277;28;20461;-87
2022/04/11 05:12:59;;;;;;;;;;;6.60;60.30;;;;;;5012971;28;19914;-88
2022/04/11 05:15:24;;;;;;;;;;;6.70;60.40;;;;;;5014552;28;19918;-86
2022/04/11 05:17:50;;;;;;;;;;;6.80;60.20;;;;;;4997971;28;19921;-86
2022/04/11 05:20:15;;;;;;;;;;;6.90;60.00;;;;;;4998171;28;20075;-89
2022/04/11 05:22:41;;;;;;;;;;;7.00;59.90;;;;;;4999045;28;19918;-87
2022/04/11 05:25:06;;;;;;;;;;;7.20;59.90;;;;;;5017040;28;20366;-89
2022/04/11 05:27:32;;;;;;;;;;;7.30;60.10;;;;;;5000073;28;19921;-89
2022/04/11 05:29:57;;;;;;;;;;;7.50;60.30;;;;;;5016342;28;19925;-87
2022/04/11 05:32:23;;;;;;;;;;;7.80;60.40;;;;;;5015994;28;19921;-87
2022/04/11 05:34:48;;;;;;;;;;;8.10;60.50;;;;;;5009816;28;20320;-87
2022/04/11 05:37:14;;;;;;;;;;;8.40;60.90;;;;;;5014429;28;19921;-88
2022/04/11 05:39:39;;;;;;;;;;;8.80;62.00;;;;;;4998894;28;19917;-88
2022/04/11 05:42:06;;;;;;;;;;;9.30;63.20;;;;;;4989846;28;19922;-88
2022/04/11 05:44:31;;;;;;;;;;;9.70;64.00;;;;;;5012873;28;19918;-90
2022/04/11 05:46:57;;;;;;;;;;;10.20;65.10;;;;;;4991894;28;20313;-88
2022/04/11 05:49:22;;;;;;;;;;;10.80;66.40;;;;;;5012427;28;19913;-87
2022/04/11 05:51:48;;;;;;;;;;;11.40;67.50;;;;;;5014789;28;19928;-88
2022/04/11 05:54:14;;;;;;;;;;;12.10;68.20;;;;;;5010365;28;20257;-90
2022/04/11 05:56:39;;;;;;;;;;;12.80;68.50;;;;;;5029140;28;19920;-87
2022/04/11 05:59:05;;;;;;;;;;;13.50;68.10;;;;;;5034095;28;20050;-87
2022/04/11 06:01:31;;;;;;;;;;;14.00;66.30;;;;;;5015736;28;19924;-87
2022/04/11 06:03:56;;;;;;;;;;;14.30;64.50;;;;;;5021604;28;19921;-87
2022/04/11 06:06:21;;;;;;;;;;;14.30;63.10;;;;;;4995262;28;20278;-88
2022/04/11 06:08:48;;;;;;;;;;;14.30;62.50;;;;;;4997779;28;20373;-89
2022/04/11 06:11:17;;;;;;;;;;;14.40;63.40;;;;;;4998064;28;19910;-87
2022/04/11 06:13:43;;;;;;;;;;;14.70;64.40;;;;;;5014011;28;19917;-88
2022/04/11 06:16:09;;;;;;;;;;;15.20;65.90;;;;;;4995518;28;19921;-88
2022/04/11 06:18:34;;;;;;;;;;;15.70;67.00;;;;;;5013431;28;20278;-89
2022/04/11 06:21:00;;;;;;;;;;;16.20;66.80;;;;;;5015393;28;19994;-89
2022/04/11 06:23:25;;;;;;;;;;;16.70;66.30;;;;;;5013185;28;19940;-89
2022/04/11 06:25:51;;;;;;;;;;;17.20;66.60;;;;;;5012308;28;19924;-88
2022/04/11 06:28:16;;;;;;;;;;;17.70;66.30;;;;;;5012304;28;20285;-88
2022/04/11 06:30:41;;;;;;;;;;;18.00;66.40;;;;;;4994441;28;19926;-87
2022/04/11 06:33:07;;;;;;;;;;;18.50;66.00;;;;;;5012261;28;20036;-88
2022/04/11 06:35:32;;;;;;;;;;;18.90;66.10;;;;;;5011568;28;20098;-87
2022/04/11 06:37:58;;;;;;;;;;;19.30;65.60;;;;;;5011502;28;19965;-89
2022/04/11 06:40:23;;;;;;;;;;;19.60;65.60;;;;;;4990722;28;19918;-88
2022/04/11 06:42:49;;;;;;;;;;;20.00;65.20;;;;;;4997927;28;19924;-86
2022/04/11 06:45:14;;;;;;;;;;;20.30;64.60;;;;;;4994558;28;19917;-88
2022/04/11 06:47:40;;;;;;;;;;;20.40;64.10;;;;;;5012241;28;19932;-88
2022/04/11 06:50:06;;;;;;;;;;;20.60;63.90;;;;;;5012116;28;19964;-90
2022/04/11 06:52:31;;;;;;;;;;;20.70;63.40;;;;;;5012425;28;19925;-89
2022/04/11 06:54:57;;;;;;;;;;;20.80;63.30;;;;;;4994566;28;19969;-88
2022/04/11 06:57:24;;;;;;;;;;;21.00;63.30;;;;;;4994175;28;20044;-89
2022/04/11 06:59:50;;;;;;;;;;;21.20;62.90;;;;;;4992336;28;20365;-88
2022/04/11 07:02:15;;;;;;;;;;;21.30;62.60;;;;;;5012056;28;20013;-88
2022/04/11 07:04:41;;;;;;;;;;;21.40;61.60;;;;;;5012182;28;19917;-87
2022/04/11 07:07:06;;;;;;;;;;;21.30;58.50;;;;;;5010543;28;19933;-87
2022/04/11 07:09:32;;;;;;;;;;;21.10;58.60;;;;;;5002460;28;19968;-88
2022/04/11 07:11:58;;;;;;;;;;;21.00;59.10;;;;;;5012489;28;19914;-89
2022/04/11 07:14:23;;;;;;;;;;;21.00;60.70;;;;;;5012299;28;19977;-88
2022/04/11 07:16:49;;;;;;;;;;;21.10;60.40;;;;;;5011868;28;19922;-90
2022/04/11 07:19:15;;;;;;;;;;;21.20;59.20;;;;;;5014814;28;19914;-90
2022/04/11 07:21:41;;;;;;;;;;;21.30;61.20;;;;;;5012588;28;20003;-88
2022/04/11 07:24:06;;;;;;;;;;;21.60;63.50;;;;;;5013285;28;19924;-90
2022/04/11 07:26:32;;;;;;;;;;;22.00;64.80;;;;;;5013848;28;19921;-92
2022/04/11 07:28:57;;;;;;;;;;;22.50;66.00;;;;;;4997410;28;19933;-94
2022/04/11 07:31:23;;;;;;;;;;;23.00;65.20;;;;;;5012476;28;19932;-89
2022/04/11 07:33:49;;;;;;;;;;;23.30;64.10;;;;;;5012711;28;19944;-89
2022/04/11 07:36:14;;;;;;;;;;;23.30;61.90;;;;;;5012748;28;19917;-89
2022/04/11 07:38:40;;;;;;;;;;;23.50;62.70;;;;;;5015815;28;19944;-90
2022/04/11 07:41:05;;;;;;;;;;;23.60;62.60;;;;;;5011344;28;19921;-89
2022/04/11 07:43:31;;;;;;;;;;;23.80;63.40;;;;;;5008665;28;19928;-90
2022/04/11 07:45:56;;;;;;;;;;;24.00;61.80;;;;;;5013441;28;20401;-90
2022/04/11 07:48:21;;;;;;;;;;;24.10;57.80;;;;;;5010493;28;20012;-90
2022/04/11 07:50:47;;;;;;;;;;;24.20;57.70;;;;;;5013504;28;19921;-90
2022/04/11 07:53:12;;;;;;;;;;;24.20;57.30;;;;;;5014514;28;20344;-90
2022/04/11 07:55:38;;;;;;;;;;;24.20;57.60;;;;;;5017609;28;19917;-89
2022/04/11 07:58:04;;;;;;;;;;;24.40;58.80;;;;;;5016208;28;19914;-90
2022/04/11 08:00:30;;;;;;;;;;;24.80;61.00;;;;;;5019846;28;19921;-90
2022/04/11 08:02:56;;;;;;;;;;;25.30;60.80;;;;;;5013400;28;19932;-89
2022/04/11 08:05:22;;;;;;;;;;;25.80;62.30;;;;;;5017041;28;20404;-90
2022/04/11 08:07:48;;;;;;;;;;;26.40;60.70;;;;;;5017483;28;19968;-89
2022/04/11 08:10:14;;;;;;;;;;;26.70;57.00;;;;;;5014307;28;19956;-89
2022/04/11 08:12:41;;;;;;;;;;;27.00;58.70;;;;;;4995920;28;19953;-89
2022/04/11 08:15:07;;;;;;;;;;;27.30;56.90;;;;;;5016612;28;19917;-89
2022/04/11 08:17:32;;;;;;;;;;;27.40;55.40;;;;;;5009967;28;19924;-89
2022/04/11 08:19:58;;;;;;;;;;;27.50;56.00;;;;;;5010371;28;19933;-88
2022/04/11 08:22:23;;;;;;;;;;;27.80;54.30;;;;;;5014974;28;20373;-89
2022/04/11 08:24:49;;;;;;;;;;;28.10;52.60;;;;;;4992539;28;20401;-89
2022/04/11 08:27:15;;;;;;;;;;;28.40;52.50;;;;;;5012655;28;20516;-90
2022/04/11 08:29:41;;;;;;;;;;;28.70;52.30;;;;;;5013332;28;19921;-89
2022/04/11 08:32:07;;;;;;;;;;;29.00;53.30;;;;;;5015499;28;19925;-89
2022/04/11 08:34:32;;;;;;;;;;;29.40;54.10;;;;;;4992953;28;19929;-89
2022/04/11 08:36:57;;;;;;;;;;;30.10;55.20;;;;;;4996378;28;19917;-89
2022/04/11 08:39:23;;;;;;;;;;;30.60;51.00;;;;;;5016299;28;19929;-89
2022/04/11 08:41:49;;;;;;;;;;;30.90;49.30;;;;;;5015241;28;19941;-89
2022/04/11 08:44:14;;;;;;;;;;;31.00;49.10;;;;;;5015539;28;19941;-88
2022/04/11 08:46:40;;;;;;;;;;;30.80;45.30;;;;;;5013162;28;19921;-88
2022/04/11 08:49:08;;;;;;;;;;;30.50;45.00;;;;;;5013713;28;20304;-89
2022/04/11 08:51:34;;;;;;;;;;;30.30;45.80;;;;;;5013749;28;19918;-88
2022/04/11 08:54:04;;;;;;;;;;;30.20;45.30;;;;;;5001546;28;19921;-89
2022/04/11 08:56:30;;;;;;;;;;;30.10;43.70;;;;;;5014620;28;19929;-89
2022/04/11 08:58:55;;;;;;;;;;;29.80;43.20;;;;;;5014602;28;19917;-89
2022/04/11 09:01:21;;;;;;;;;;;29.60;39.70;;;;;;5013303;28;19925;-90
2022/04/11 09:03:47;;;;;;;;;;;29.30;36.50;;;;;;5012339;28;19924;-89
2022/04/11 09:06:15;;;;;;;;;;;29.00;37.50;;;;;;5013471;28;19921;-89
2022/04/11 09:08:49;;;;;;;;;;;28.80;37.70;;;;;;4998360;28;19943;-89
2022/04/11 09:11:26;;;;;;;;;;;28.80;38.40;;;;;;5005150;28;19940;-89
2022/04/11 09:13:52;;;;;;;;;;;28.90;37.50;;;;;;5013440;28;19921;-89
2022/04/11 09:16:18;;;;;;;;;;;29.20;36.90;;;;;;5013835;28;19933;-89
2022/04/11 09:18:48;;;;;;;;;;;29.30;35.10;;;;;;5014126;28;19917;-88
2022/04/11 09:21:13;;;;;;;;;;;29.50;33.00;;;;;;5014876;28;19963;-89
2022/04/11 09:23:39;;;;;;;;;;;29.80;33.10;;;;;;5013892;28;19961;-89
2022/04/11 09:26:18;;;;;;;;;;;30.20;31.90;;;;;;4997979;28;19936;-90
2022/04/11 09:28:43;;;;;;;;;;;30.70;30.50;;;;;;5015726;28;20013;-89
2022/04/11 09:31:08;;;;;;;;;;;30.70;28.70;;;;;;5017265;28;20375;-90
2022/04/11 09:33:38;;;;;;;;;;;30.50;27.60;;;;;;5014081;28;19975;-90
2022/04/11 09:36:04;;;;;;;;;;;30.50;29.20;;;;;;4995557;28;19921;-90
2022/04/11 09:38:35;;;;;;;;;;;30.70;28.40;;;;;;4996577;28;20370;-90
2022/04/11 09:41:01;;;;;;;;;;;30.90;27.50;;;;;;5013853;28;19936;-90
2022/04/11 09:45:53;;;;;;;;;;;30.80;24.90;;;;;;5012004;28;19940;-91
2022/04/11 09:48:25;;;;;;;;;;;30.60;25.20;;;;;;5009250;28;19928;-89
2022/04/11 09:50:52;;;;;;;;;;;30.30;25.10;;;;;;5016370;28;19925;-89
2022/04/11 09:53:19;;;;;;;;;;;30.20;24.60;;;;;;5010733;28;19936;-89
2022/04/11 09:55:45;;;;;;;;;;;30.20;23.90;;;;;;5009166;28;19917;-89
2022/04/11 09:58:11;;;;;;;;;;;30.30;25.00;;;;;;5016900;28;19914;-90
2022/04/11 10:00:39;;;;;;;;;;;30.50;24.70;;;;;;5019385;28;19967;-89
2022/04/11 10:03:05;;;;;;;;;;;30.70;23.80;;;;;;5014671;28;19920;-92
2022/04/11 10:05:38;;;;;;;;;;;30.90;23.60;;;;;;5016591;28;19914;-90
2022/04/11 10:08:05;;;;;;;;;;;31.30;23.80;;;;;;5008391;28;19999;-90
2022/04/11 10:10:32;;;;;;;;;;;32.00;23.00;;;;;;5015473;28;19921;-89
2022/04/11 10:12:57;;;;;;;;;;;32.40;22.30;;;;;;5015363;28;19917;-90
2022/04/11 10:15:23;;;;;;;;;;;32.70;22.20;;;;;;4997952;28;20016;-91
2022/04/11 10:17:53;;;;;;;;;;;32.80;21.10;;;;;;5016682;28;20335;-89
2022/04/11 10:23:02;;;;;;;;;;;32.80;19.40;;;;;;5013552;28;19937;-89
2022/04/11 10:25:28;;;;;;;;;;;32.70;19.70;;;;;;5015012;28;19914;-90
2022/04/11 10:28:13;;;;;;;;;;;32.70;19.80;;;;;;5012799;28;19917;-90
2022/04/11 10:30:46;;;;;;;;;;;32.90;19.90;;;;;;4991044;28;19964;-89
2022/04/11 10:33:11;;;;;;;;;;;33.10;18.60;;;;;;4970683;28;20429;-89
2022/04/11 10:35:42;;;;;;;;;;;33.10;18.10;;;;;;5013138;28;19913;-90
2022/04/11 10:38:08;;;;;;;;;;;33.20;17.70;;;;;;5007441;28;20053;-90
2022/04/11 10:40:34;;;;;;;;;;;33.10;17.20;;;;;;5012472;28;20415;-89
2022/04/11 10:43:00;;;;;;;;;;;33.00;17.40;;;;;;4996607;28;19921;-89
2022/04/11 10:45:42;;;;;;;;;;;32.90;17.40;;;;;;5012341;28;20361;-90
2022/04/11 10:48:09;;;;;;;;;;;32.70;15.60;;;;;;4992406;28;20366;-88
2022/04/11 10:50:38;;;;;;;;;;;32.50;16.20;;;;;;5014505;28;19914;-88
2022/04/11 10:53:24;;;;;;;;;;;32.30;15.80;;;;;;4997726;28;20016;-89
2022/04/11 10:56:04;;;;;;;;;;;32.20;16.30;;;;;;4989762;28;19963;-90
2022/04/11 10:58:51;;;;;;;;;;;32.00;16.80;;;;;;4995327;28;19973;-89
2022/04/11 11:01:35;;;;;;;;;;;32.10;17.00;;;;;;5014291;28;19916;-89
2022/04/11 11:04:14;;;;;;;;;;;32.20;16.70;;;;;;4986204;28;19921;-90
2022/04/11 11:06:40;;;;;;;;;;;32.10;16.20;;;;;;4993541;28;20572;-90
2022/04/11 11:09:15;;;;;;;;;;;32.00;15.60;;;;;;5011740;28;19926;-90
2022/04/11 11:11:41;;;;;;;;;;;31.90;15.90;;;;;;4991698;28;19913;-90
2022/04/11 11:14:26;;;;;;;;;;;31.90;16.40;;;;;;5010964;28;19921;-90
2022/04/11 11:16:56;;;;;;;;;;;32.10;16.50;;;;;;4996495;28;19917;-90
2022/04/11 11:19:21;;;;;;;;;;;32.30;15.90;;;;;;4992576;28;19924;-89
2022/04/11 11:21:48;;;;;;;;;;;32.30;16.10;;;;;;4994207;28;19918;-89
2022/04/11 11:24:15;;;;;;;;;;;32.20;15.40;;;;;;5009736;28;20281;-89
2022/04/11 11:26:46;;;;;;;;;;;32.00;15.90;;;;;;5013518;28;20384;-90
2022/04/11 11:29:16;;;;;;;;;;;31.90;15.90;;;;;;5010433;28;19977;-89
2022/04/11 11:31:42;;;;;;;;;;;31.80;15.90;;;;;;5011243;28;20384;-88
2022/04/11 11:34:11;;;;;;;;;;;32.00;16.20;;;;;;5014547;28;19924;-89
2022/04/11 11:36:38;;;;;;;;;;;32.30;16.30;;;;;;5013960;28;19921;-88
2022/04/11 11:39:11;;;;;;;;;;;32.70;16.80;;;;;;4995926;28;19922;-89
2022/04/11 11:41:37;;;;;;;;;;;32.80;15.50;;;;;;5015146;28;20002;-89
2022/04/11 11:44:03;;;;;;;;;;;32.60;15.40;;;;;;5011467;28;19950;-88
2022/04/11 11:46:29;;;;;;;;;;;32.40;15.60;;;;;;5013089;28;19926;-90
2022/04/11 11:48:57;;;;;;;;;;;32.40;15.70;;;;;;5002557;28;20377;-91
2022/04/11 11:51:23;;;;;;;;;;;32.30;15.20;;;;;;5013226;28;19947;-91
2022/04/11 11:53:51;;;;;;;;;;;32.00;15.40;;;;;;5015573;28;19945;-88
2022/04/11 11:56:17;;;;;;;;;;;31.70;15.30;;;;;;4995639;28;20032;-88
2022/04/11 11:58:42;;;;;;;;;;;31.50;15.70;;;;;;4996224;28;19968;-89
2022/04/11 12:01:12;;;;;;;;;;;31.30;15.60;;;;;;4994688;28;19937;-88
2022/04/11 12:06:22;;;;;;;;;;;31.10;16.00;;;;;;5012940;28;20608;-89
2022/04/11 12:08:55;;;;;;;;;;;31.30;16.40;;;;;;4995157;28;19926;-89
2022/04/11 12:11:22;;;;;;;;;;;31.60;16.20;;;;;;4996286;28;19976;-88
2022/04/11 12:13:48;;;;;;;;;;;31.40;15.40;;;;;;5014184;28;19928;-89
2022/04/11 12:16:19;;;;;;;;;;;31.20;15.60;;;;;;5011488;28;20342;-88
2022/04/11 12:18:48;;;;;;;;;;;31.00;15.90;;;;;;5010824;28;19921;-89
2022/04/11 12:21:14;;;;;;;;;;;31.10;16.20;;;;;;4996740;28;19917;-88
2022/04/11 12:23:43;;;;;;;;;;;31.20;16.20;;;;;;5012752;28;19931;-88
2022/04/11 12:26:08;;;;;;;;;;;30.80;15.80;;;;;;4995244;28;19972;-88
2022/04/11 12:28:34;;;;;;;;;;;30.30;15.90;;;;;;4995687;28;20381;-88
2022/04/11 12:31:02;;;;;;;;;;;30.00;16.20;;;;;;4996028;28;20381;-89
2022/04/11 12:33:28;;;;;;;;;;;29.80;16.40;;;;;;5013638;28;19921;-89
2022/04/11 12:36:06;;;;;;;;;;;29.40;16.50;;;;;;4995635;28;19945;-89
2022/04/11 12:38:41;;;;;;;;;;;29.20;16.70;;;;;;5010208;28;19913;-89
2022/04/11 12:41:22;;;;;;;;;;;29.10;17.00;;;;;;5011449;28;20345;-88
2022/04/11 12:44:14;;;;;;;;;;;29.10;17.40;;;;;;5008721;28;19972;-89
2022/04/11 12:46:46;;;;;;;;;;;29.00;17.10;;;;;;4989798;28;19944;-89
2022/04/11 12:49:13;;;;;;;;;;;28.70;17.30;;;;;;4994414;28;19921;-90
2022/04/11 12:51:39;;;;;;;;;;;28.50;17.40;;;;;;4995832;28;19925;-89
2022/04/11 12:54:10;;;;;;;;;;;28.50;17.80;;;;;;4995740;28;19917;-89
2022/04/11 12:56:37;;;;;;;;;;;28.50;17.80;;;;;;5013363;28;19940;-89
2022/04/11 12:59:02;;;;;;;;;;;28.30;17.60;;;;;;4994643;28;19957;-88
2022/04/11 13:01:46;;;;;;;;;;;28.00;17.80;;;;;;5014118;28;20388;-89
2022/04/11 13:04:12;;;;;;;;;;;28.00;18.00;;;;;;4993244;28;20000;-88
2022/04/11 13:06:37;;;;;;;;;;;27.80;18.00;;;;;;4994221;28;19941;-88
2022/04/11 13:09:03;;;;;;;;;;;27.80;18.30;;;;;;5014702;28;19945;-88
2022/04/11 13:11:28;;;;;;;;;;;27.70;18.00;;;;;;5016406;28;19917;-89
2022/04/11 13:13:54;;;;;;;;;;;27.60;18.20;;;;;;4998762;28;19917;-89
2022/04/11 13:19:04;;;;;;;;;;;27.80;18.60;;;;;;5017453;28;19971;-88
2022/04/11 13:21:30;;;;;;;;;;;27.60;18.20;;;;;;5015884;28;19914;-88
2022/04/11 13:23:55;;;;;;;;;;;27.40;17.90;;;;;;5015540;28;19969;-89
2022/04/11 13:26:21;;;;;;;;;;;27.20;18.10;;;;;;5011466;28;19926;-90
2022/04/11 13:28:46;;;;;;;;;;;27.20;18.40;;;;;;4986325;28;20427;-89
2022/04/11 13:31:12;;;;;;;;;;;27.00;18.50;;;;;;4997880;28;19943;-89
2022/04/11 13:33:37;;;;;;;;;;;26.80;18.70;;;;;;4997071;28;20741;-89
2022/04/11 13:36:03;;;;;;;;;;;26.70;18.80;;;;;;5008409;28;19953;-90
2022/04/11 13:38:29;;;;;;;;;;;26.60;18.80;;;;;;5000288;28;19917;-90
2022/04/11 13:40:54;;;;;;;;;;;26.20;18.90;;;;;;5015907;28;19920;-90
2022/04/11 13:43:20;;;;;;;;;;;25.80;19.20;;;;;;4994210;28;20305;-89
2022/04/11 13:45:46;;;;;;;;;;;25.40;19.60;;;;;;5015032;28;19975;-89
2022/04/11 13:48:12;;;;;;;;;;;24.80;19.90;;;;;;5012863;28;19924;-89
2022/04/11 13:50:44;;;;;;;;;;;24.40;20.20;;;;;;5011269;28;19933;-89
2022/04/11 13:53:09;;;;;;;;;;;24.00;20.80;;;;;;4993991;28;19918;-89
2022/04/11 13:55:34;;;;;;;;;;;23.50;21.20;;;;;;4993999;28;19928;-89
2022/04/11 13:58:03;;;;;;;;;;;23.20;21.60;;;;;;5012328;28;19918;-89
2022/04/11 14:00:28;;;;;;;;;;;22.90;21.90;;;;;;4993425;28;19952;-89
2022/04/11 14:02:54;;;;;;;;;;;22.50;22.20;;;;;;4989470;28;20033;-88
2022/04/11 14:05:19;;;;;;;;;;;22.20;22.60;;;;;;5010087;28;20019;-89
2022/04/11 14:07:45;;;;;;;;;;;21.90;22.80;;;;;;5012949;28;20437;-88
2022/04/11 14:10:11;;;;;;;;;;;21.70;23.10;;;;;;4994705;28;19914;-88
2022/04/11 14:12:36;;;;;;;;;;;21.40;23.30;;;;;;5010731;28;20008;-88
2022/04/11 14:15:02;;;;;;;;;;;21.30;23.50;;;;;;5011618;28;19952;-88
2022/04/11 14:17:27;;;;;;;;;;;21.20;23.40;;;;;;5010718;28;19967;-88
2022/04/11 14:19:52;;;;;;;;;;;21.10;23.70;;;;;;4995182;28;19917;-88
2022/04/11 14:22:18;;;;;;;;;;;20.90;23.80;;;;;;5009171;28;19922;-88
2022/04/11 14:24:43;;;;;;;;;;;20.80;23.70;;;;;;4994665;28;20301;-88
2022/04/11 14:27:09;;;;;;;;;;;20.80;24.00;;;;;;5010806;28;19973;-88
2022/04/11 14:29:34;;;;;;;;;;;20.70;24.10;;;;;;4993941;28;19914;-88